createdAt,value
2023-04-01T00:01:20.785Z,94780.22
2023-04-01T00:03:47.522Z,94779.28
2023-04-01T00:06:16.412Z,94808.75
2023-04-01T00:08:43.051Z,94747.34
2023-04-01T00:11:09.755Z,94799.63
2023-04-01T00:13:36.874Z,94781.31
2023-04-01T00:16:13.380Z,94754.47
2023-04-01T00:18:48.455Z,94772.88
2023-04-01T00:21:15.538Z,94757.69
2023-04-01T00:23:42.650Z,94784.28
2023-04-01T00:26:09.343Z,94779.72
2023-04-01T00:28:37.200Z,94774.72
2023-04-01T00:31:11.391Z,94759.13
2023-04-01T00:33:39.146Z,94790.06
2023-04-01T00:36:14.552Z,94790.72
2023-04-01T00:38:43.497Z,94769.38
2023-04-01T00:41:15.379Z,94788.56
2023-04-01T00:43:43.518Z,94745.75
2023-04-01T00:46:10.358Z,94760.56
2023-04-01T00:48:40.745Z,94783.44
2023-04-01T00:51:11.917Z,94782.16
2023-04-01T00:53:45.885Z,94788.38
2023-04-01T00:56:23.404Z,94770.72
2023-04-01T00:58:55.489Z,94765.41
2023-04-01T01:01:25.539Z,94690.66
2023-04-01T01:03:52.601Z,94752.16
2023-04-01T01:06:34.452Z,94786.91
2023-04-01T01:09:12.754Z,94791.41
2023-04-01T01:11:48.324Z,94770.47
2023-04-01T01:14:24.583Z,94746.09
2023-04-01T01:17:17.317Z,94786.50
2023-04-01T01:20:02.914Z,94789.53
2023-04-01T01:22:44.892Z,94780.56
2023-04-01T01:25:27.344Z,94788.88
2023-04-01T01:28:21.745Z,94761.84
2023-04-01T01:30:58.199Z,94752.28
2023-04-01T01:33:50.501Z,94652.81
2023-04-01T01:36:20.032Z,94738.28
2023-04-01T01:38:49.270Z,94741.03
2023-04-01T01:41:18.497Z,94748.22
2023-04-01T01:43:49.600Z,94779.47
2023-04-01T01:46:22.146Z,94731.19
2023-04-01T01:48:51.676Z,94763.22
2023-04-01T01:51:21.119Z,94765.41
2023-04-01T01:53:47.884Z,94759.28
2023-04-01T01:56:19.693Z,94741.03
2023-04-01T01:58:50.092Z,94719.34
2023-04-01T02:01:26.748Z,94775.84
2023-04-01T02:03:56.656Z,94739.59
2023-04-01T02:06:26.960Z,94785.31
2023-04-01T02:09:04.749Z,94788.72
2023-04-01T02:11:39.539Z,94784.22
2023-04-01T02:14:17.657Z,94771.94
2023-04-01T02:16:56.856Z,94785.31
2023-04-01T02:19:31.265Z,94778.97
2023-04-01T02:22:02.394Z,94777.44
2023-04-01T02:24:32.434Z,94776.94
2023-04-01T02:26:59.470Z,94745.53
2023-04-01T02:29:28.290Z,94781.34
2023-04-01T02:31:55.981Z,94761.78
2023-04-01T02:34:24.185Z,94765.06
2023-04-01T02:36:52.191Z,94740.56
2023-04-01T02:39:19.326Z,94720.94
2023-04-01T02:41:46.999Z,94797.09
2023-04-01T02:44:15.771Z,94796.78
2023-04-01T02:46:43.582Z,94736.53
2023-04-01T02:49:10.482Z,94798.94
2023-04-01T02:51:37.169Z,94784.13
2023-04-01T02:54:04.310Z,94789.72
2023-04-01T02:56:31.220Z,94732.13
2023-04-01T02:58:57.866Z,94789.41
2023-04-01T03:01:24.656Z,94789.31
2023-04-01T03:03:51.374Z,94814.41
2023-04-01T03:06:18.358Z,94809.91
2023-04-01T03:08:46.066Z,94784.63
2023-04-01T03:11:13.397Z,94817.34
2023-04-01T03:13:40.097Z,94786.69
2023-04-01T03:16:07.162Z,94814.56
2023-04-01T03:18:35.618Z,94782.84
2023-04-01T03:21:20.386Z,94795.06
2023-04-01T03:23:47.249Z,94791.34
2023-04-01T03:26:14.616Z,94799.81
2023-04-01T03:28:42.081Z,94806.31
2023-04-01T03:31:08.973Z,94818.88
2023-04-01T03:33:42.030Z,94798.44
2023-04-01T03:36:09.352Z,94802.94
2023-04-01T03:38:36.516Z,94721.78
2023-04-01T03:41:03.661Z,94829.97
2023-04-01T03:43:32.052Z,94821.41
2023-04-01T03:45:59.603Z,94803.97
2023-04-01T03:48:26.936Z,94786.75
2023-04-01T03:50:54.037Z,94804.19
2023-04-01T03:53:21.322Z,94752.34
2023-04-01T03:55:48.695Z,94809.97
2023-04-01T03:58:16.208Z,94792.78
2023-04-01T04:00:42.982Z,94802.59
2023-04-01T04:03:10.623Z,94825.31
2023-04-01T04:05:37.543Z,94794.56
2023-04-01T04:08:04.704Z,94831.84
2023-04-01T04:10:32.013Z,94803.19
2023-04-01T04:12:58.682Z,94833.84
2023-04-01T04:15:28.435Z,94789.38
2023-04-01T04:17:55.171Z,94811.25
2023-04-01T04:20:22.050Z,94809.72
2023-04-01T04:22:48.866Z,94797.41
2023-04-01T04:25:15.668Z,94807.41
2023-04-01T04:27:42.851Z,94834.88
2023-04-01T04:30:12.444Z,94812.41
2023-04-01T04:32:39.241Z,94813.09
2023-04-01T04:35:07.488Z,94849.72
2023-04-01T04:37:34.738Z,94818.41
2023-04-01T04:40:01.413Z,94845.91
2023-04-01T04:42:29.167Z,94835.88
2023-04-01T04:45:00.904Z,94829.47
2023-04-01T04:47:28.028Z,94803.91
2023-04-01T04:49:54.757Z,94817.50
2023-04-01T04:52:21.463Z,94760.56
2023-04-01T04:54:48.192Z,94794.78
2023-04-01T04:57:15.425Z,94802.50
2023-04-01T04:59:48.425Z,94835.22
2023-04-01T05:02:26.060Z,94858.69
2023-04-01T05:04:53.122Z,94824.44
2023-04-01T05:07:19.729Z,94800.72
2023-04-01T05:09:46.794Z,94853.25
2023-04-01T05:12:14.261Z,94844.66
2023-04-01T05:15:01.540Z,94840.09
2023-04-01T05:17:28.516Z,94812.66
2023-04-01T05:19:55.309Z,94842.22
2023-04-01T05:22:22.020Z,94839.91
2023-04-01T05:24:48.656Z,94838.38
2023-04-01T05:27:15.788Z,94848.53
2023-04-01T05:29:43.168Z,94823.56
2023-04-01T05:32:25.706Z,94810.56
2023-04-01T05:34:53.415Z,94827.28
2023-04-01T05:37:20.764Z,94802.75
2023-04-01T05:39:47.562Z,94792.84
2023-04-01T05:42:14.721Z,94834.41
2023-04-01T05:44:41.833Z,94822.19
2023-04-01T05:47:08.463Z,94810.56
2023-04-01T05:49:35.788Z,94827.78
2023-04-01T05:52:03.681Z,94798.28
2023-04-01T05:54:31.754Z,94826.94
2023-04-01T05:56:58.431Z,94828.91
2023-04-01T05:59:25.225Z,94859.53
2023-04-01T06:01:52.304Z,94861.44
2023-04-01T06:04:20.919Z,94831.16
2023-04-01T06:06:47.740Z,94851.50
2023-04-01T06:09:14.461Z,94862.44
2023-04-01T06:12:00.770Z,94870.41
2023-04-01T06:14:39.056Z,94862.97
2023-04-01T06:17:40.594Z,94849.13
2023-04-01T06:20:46.148Z,94845.91
2023-04-01T06:23:34.735Z,94858.06
2023-04-01T06:26:39.892Z,94871.53
2023-04-01T06:29:24.193Z,94857.03
2023-04-01T06:32:13.696Z,94872.44
2023-04-01T06:35:13.635Z,94857.38
2023-04-01T06:37:53.312Z,94860.97
2023-04-01T06:40:37.909Z,94872.31
2023-04-01T06:43:32.629Z,94861.53
2023-04-01T06:46:36.448Z,94870.88
2023-04-01T06:49:52.871Z,94860.97
2023-04-01T06:52:44.454Z,94838.16
2023-04-01T06:55:54.868Z,94843.34
2023-04-01T06:58:43.086Z,94856.13
2023-04-01T07:01:29.039Z,94830.69
2023-04-01T07:04:07.395Z,94832.72
2023-04-01T07:06:59.698Z,94858.34
2023-04-01T07:09:36.027Z,94835.22
2023-04-01T07:12:48.352Z,94847.84
2023-04-01T07:16:13.920Z,94855.06
2023-04-01T07:18:48.707Z,94870.41
2023-04-01T07:21:33.564Z,94863.69
2023-04-01T07:24:07.804Z,94867.63
2023-04-01T07:26:38.825Z,94836.75
2023-04-01T07:29:14.492Z,94817.34
2023-04-01T07:32:06.692Z,94863.47
2023-04-01T07:34:42.864Z,94844.78
2023-04-01T07:37:14.302Z,94876.16
2023-04-01T07:39:53.473Z,94870.47
2023-04-01T07:42:41.073Z,94853.09
2023-04-01T07:45:31.825Z,94837.09
2023-04-01T07:48:09.555Z,94886.06
2023-04-01T07:50:43.902Z,94848.72
2023-04-01T07:53:34.449Z,94889.44
2023-04-01T07:56:10.222Z,94842.44
2023-04-01T07:58:43.107Z,94887.72
2023-04-01T08:01:41.768Z,94889.47
2023-04-01T08:04:12.725Z,94902.53
2023-04-01T08:07:18.133Z,94903.28
2023-04-01T08:10:33.687Z,94903.88
2023-04-01T08:13:58.161Z,94896.97
2023-04-01T08:17:01.619Z,94882.13
2023-04-01T08:19:53.022Z,94888.38
2023-04-01T08:22:32.219Z,94892.34
2023-04-01T08:25:05.204Z,94861.41
2023-04-01T08:27:57.869Z,94878.97
2023-04-01T08:30:28.049Z,94904.22
2023-04-01T08:32:54.796Z,94905.03
2023-04-01T08:35:32.096Z,94905.63
2023-04-01T08:38:07.718Z,94879.66
2023-04-01T08:40:49.537Z,94875.56
2023-04-01T08:43:25.339Z,94902.41
2023-04-01T08:46:14.546Z,94862.34
2023-04-01T08:48:49.547Z,94832.41
2023-04-01T08:51:31.579Z,94906.72
2023-04-01T08:54:16.708Z,94906.03
2023-04-01T08:56:49.266Z,94902.69
2023-04-01T08:59:49.486Z,94868.75
2023-04-01T09:03:00.192Z,94901.19
2023-04-01T09:05:34.165Z,94901.00
2023-04-01T09:08:28.960Z,94910.97
2023-04-01T09:11:24.776Z,94881.19
2023-04-01T09:14:42.146Z,94903.00
2023-04-01T09:17:56.731Z,94883.50
2023-04-01T09:20:51.390Z,94895.22
2023-04-01T09:23:34.704Z,94858.00
2023-04-01T09:26:20.577Z,94872.81
2023-04-01T09:28:56.732Z,94906.31
2023-04-01T09:31:33.588Z,94898.59
2023-04-01T09:35:01.532Z,94868.25
2023-04-01T09:37:54.000Z,94902.25
2023-04-01T09:40:27.424Z,94902.84
2023-04-01T09:43:11.685Z,94905.47
2023-04-01T09:45:50.960Z,94911.69
2023-04-01T09:48:51.689Z,94903.75
2023-04-01T09:51:37.953Z,94906.72
2023-04-01T09:54:22.440Z,94913.16
2023-04-01T09:57:26.593Z,94909.25
2023-04-01T10:00:28.978Z,94909.25
2023-04-01T10:03:56.852Z,94914.03
2023-04-01T10:06:23.708Z,94914.69
2023-04-01T10:09:02.500Z,94912.81
2023-04-01T10:12:03.633Z,94913.00
2023-04-01T10:14:53.663Z,94910.13
2023-04-01T10:17:32.664Z,94904.47
2023-04-01T10:20:30.361Z,94909.88
2023-04-01T10:23:31.211Z,94918.34
2023-04-01T10:26:28.963Z,94910.03
2023-04-01T10:29:17.750Z,94907.19
2023-04-01T10:32:09.580Z,94920.78
2023-04-01T10:35:15.128Z,94909.41
2023-04-01T10:37:51.854Z,94915.16
2023-04-01T10:41:03.591Z,94886.19
2023-04-01T10:43:51.639Z,94914.72
2023-04-01T10:46:46.329Z,94911.53
2023-04-01T10:49:24.226Z,94909.03
2023-04-01T10:52:37.451Z,94828.91
2023-04-01T10:55:47.499Z,94897.38
2023-04-01T10:58:50.843Z,94901.03
2023-04-01T11:02:12.544Z,94903.16
2023-04-01T11:05:20.204Z,94895.72
2023-04-01T11:08:07.662Z,94868.06
2023-04-01T11:11:15.710Z,94901.53
2023-04-01T11:14:20.959Z,94895.56
2023-04-01T11:16:51.662Z,94902.97
2023-04-01T11:19:44.412Z,94901.34
2023-04-01T11:22:38.428Z,94893.88
2023-04-01T11:25:26.899Z,94897.50
2023-04-01T11:28:43.953Z,94874.06
2023-04-01T11:31:36.604Z,94900.81
2023-04-01T11:34:15.633Z,94893.97
2023-04-01T11:37:03.655Z,94901.16
2023-04-01T11:39:38.125Z,94894.84
2023-04-01T11:42:53.040Z,94863.59
2023-04-01T11:45:43.783Z,94874.22
2023-04-01T11:48:40.671Z,94896.16
2023-04-01T11:51:19.402Z,94897.13
2023-04-01T11:54:20.245Z,94896.22
2023-04-01T11:57:22.462Z,94869.88
2023-04-01T12:00:04.343Z,94855.06
2023-04-01T12:03:09.969Z,94865.75
2023-04-01T12:06:00.066Z,94890.13
2023-04-01T12:08:37.354Z,94851.59
2023-04-01T12:11:17.364Z,94903.44
2023-04-01T12:14:02.575Z,94909.13
2023-04-01T12:16:55.981Z,94910.72
2023-04-01T12:19:44.126Z,94903.00
2023-04-01T12:22:13.710Z,94910.91
2023-04-01T12:25:03.595Z,94913.75
2023-04-01T12:27:42.512Z,94909.53
2023-04-01T12:30:37.486Z,94909.53
2023-04-01T12:33:04.107Z,94911.34
2023-04-01T12:35:50.291Z,94911.75
2023-04-01T12:38:23.630Z,94901.06
2023-04-01T12:41:11.941Z,94912.00
2023-04-01T12:43:47.619Z,94904.38
2023-04-01T12:46:45.041Z,94896.47
2023-04-01T12:49:26.417Z,94906.44
2023-04-01T12:52:05.651Z,94910.19
2023-04-01T12:55:26.186Z,94907.66
2023-04-01T12:58:11.318Z,94902.69
2023-04-01T13:00:49.579Z,94889.22
2023-04-01T13:03:52.862Z,94907.44
2023-04-01T13:06:38.961Z,94906.94
2023-04-01T13:09:23.551Z,94908.38
2023-04-01T13:12:31.059Z,94897.50
2023-04-01T13:15:06.750Z,94909.34
2023-04-01T13:17:42.190Z,94912.81
2023-04-01T13:20:20.830Z,94903.63
2023-04-01T13:22:56.099Z,94906.34
2023-04-01T13:25:48.085Z,94908.06
2023-04-01T13:28:39.193Z,94899.09
2023-04-01T13:31:42.859Z,94910.81
2023-04-01T13:34:27.939Z,94904.03
2023-04-01T13:37:04.649Z,94893.19
2023-04-01T13:39:58.405Z,94912.31
2023-04-01T13:42:34.712Z,94912.91
2023-04-01T13:45:12.002Z,94915.47
2023-04-01T13:47:50.862Z,94914.63
2023-04-01T13:51:01.824Z,94920.31
2023-04-01T13:53:34.603Z,94923.53
2023-04-01T13:56:26.737Z,94918.63
2023-04-01T13:59:02.499Z,94912.66
2023-04-01T14:02:17.036Z,94914.19
2023-04-01T14:04:58.915Z,94914.38
2023-04-01T14:07:34.283Z,94908.97
2023-04-01T14:10:22.945Z,94918.88
2023-04-01T14:13:18.834Z,94924.44
2023-04-01T14:15:48.442Z,94920.94
2023-04-01T14:18:24.995Z,94901.81
2023-04-01T14:21:22.079Z,94920.25
2023-04-01T14:24:00.746Z,94882.63
2023-04-01T14:26:43.567Z,94922.69
2023-04-01T14:29:34.713Z,94933.09
2023-04-01T14:32:17.788Z,94925.03
2023-04-01T14:34:44.390Z,94926.97
2023-04-01T14:37:32.634Z,94921.88
2023-04-01T14:40:22.761Z,94917.56
2023-04-01T14:43:04.619Z,94925.06
2023-04-01T14:45:40.824Z,94927.44
2023-04-01T14:48:16.695Z,94928.53
2023-04-01T14:50:47.283Z,94895.25
2023-04-01T14:53:32.417Z,94909.66
2023-04-01T14:56:02.177Z,94914.84
2023-04-01T14:58:51.619Z,94908.59
2023-04-01T15:01:24.646Z,94929.78
2023-04-01T15:04:19.384Z,94912.16
2023-04-01T15:06:55.259Z,94926.84
2023-04-01T15:09:33.963Z,94902.78
2023-04-01T15:12:16.045Z,94924.13
2023-04-01T15:15:15.780Z,94904.63
2023-04-01T15:17:49.737Z,94926.34
2023-04-01T15:20:16.461Z,94926.06
2023-04-01T15:23:04.306Z,94927.53
2023-04-01T15:25:31.211Z,94934.59
2023-04-01T15:28:19.775Z,94929.91
2023-04-01T15:30:58.850Z,94932.28
2023-04-01T15:33:45.496Z,94937.56
2023-04-01T15:36:32.923Z,94948.84
2023-04-01T15:39:19.815Z,94947.41
2023-04-01T15:42:24.044Z,94943.50
2023-04-01T15:44:53.738Z,94941.94
2023-04-01T15:47:26.539Z,94938.13
2023-04-01T15:49:58.492Z,94948.75
2023-04-01T15:52:43.069Z,94946.38
2023-04-01T15:55:27.973Z,94946.44
2023-04-01T15:57:57.710Z,94948.75
2023-04-01T16:00:32.981Z,94949.53
2023-04-01T16:03:08.686Z,94951.28
2023-04-01T16:05:59.715Z,94960.88
2023-04-01T16:08:41.430Z,94936.78
2023-04-01T16:11:24.192Z,94964.19
2023-04-01T16:14:22.794Z,94964.63
2023-04-01T16:17:07.252Z,94968.03
2023-04-01T16:19:47.944Z,94951.38
2023-04-01T16:22:28.055Z,94955.44
2023-04-01T16:25:13.265Z,94963.09
2023-04-01T16:27:57.512Z,94977.84
2023-04-01T16:30:33.569Z,94978.09
2023-04-01T16:33:07.033Z,94980.28
2023-04-01T16:35:53.726Z,94927.28
2023-04-01T16:38:46.387Z,94934.06
2023-04-01T16:41:17.624Z,94970.53
2023-04-01T16:43:48.774Z,94972.47
2023-04-01T16:46:36.878Z,94981.41
2023-04-01T16:49:12.694Z,94985.53
2023-04-01T16:51:53.244Z,94976.91
2023-04-01T16:54:41.645Z,94980.56
2023-04-01T16:57:11.358Z,94985.03
2023-04-01T16:59:55.384Z,94994.03
2023-04-01T17:02:29.280Z,94990.31
2023-04-01T17:05:07.000Z,94974.25
2023-04-01T17:08:19.053Z,94991.06
2023-04-01T17:10:51.753Z,94984.94
2023-04-01T17:13:33.692Z,94991.97
2023-04-01T17:16:29.987Z,94984.25
2023-04-01T17:19:19.651Z,95000.13
2023-04-01T17:22:13.816Z,94998.81
2023-04-01T17:24:43.840Z,94999.25
2023-04-01T17:27:21.118Z,94999.25
2023-04-01T17:30:03.108Z,95000.03
2023-04-01T17:32:58.087Z,94974.72
2023-04-01T17:35:28.046Z,95008.91
2023-04-01T17:38:10.562Z,94977.03
2023-04-01T17:41:09.929Z,95014.91
2023-04-01T17:43:51.155Z,95023.38
2023-04-01T17:47:11.272Z,95025.25
2023-04-01T17:49:46.457Z,95031.69
2023-04-01T17:52:26.172Z,95005.09
2023-04-01T17:55:31.222Z,95015.69
2023-04-01T17:58:03.974Z,95041.00
2023-04-01T18:00:53.951Z,95009.91
2023-04-01T18:03:58.903Z,95046.59
2023-04-01T18:06:43.866Z,95040.91
2023-04-01T18:09:39.743Z,95041.38
2023-04-01T18:12:25.022Z,95042.59
2023-04-01T18:15:26.040Z,95052.75
2023-04-01T18:17:52.672Z,95048.16
2023-04-01T18:20:39.185Z,95055.38
2023-04-01T18:23:18.021Z,95054.06
2023-04-01T18:25:49.591Z,95041.75
2023-04-01T18:28:32.117Z,95058.56
2023-04-01T18:31:07.120Z,95057.78
2023-04-01T18:33:50.185Z,95061.31
2023-04-01T18:36:22.912Z,95048.88
2023-04-01T18:39:08.622Z,95027.47
2023-04-01T18:41:45.104Z,95073.34
2023-04-01T18:44:43.414Z,95055.31
2023-04-01T18:47:28.333Z,95083.84
2023-04-01T18:50:01.462Z,95081.66
2023-04-01T18:52:45.141Z,95092.50
2023-04-01T18:55:32.692Z,95098.50
2023-04-01T18:58:21.957Z,95099.59
2023-04-01T19:01:13.906Z,95066.72
2023-04-01T19:03:55.457Z,95108.00
2023-04-01T19:06:36.645Z,95063.75
2023-04-01T19:09:43.856Z,95090.78
2023-04-01T19:12:54.897Z,95105.41
2023-04-01T19:15:45.055Z,95120.06
2023-04-01T19:18:27.246Z,95119.63
2023-04-01T19:20:58.500Z,95131.47
2023-04-01T19:23:43.924Z,95117.91
2023-04-01T19:26:28.270Z,95104.47
2023-04-01T19:29:13.531Z,95115.28
2023-04-01T19:32:05.656Z,95067.50
2023-04-01T19:35:19.404Z,95112.53
2023-04-01T19:37:58.838Z,95124.69
2023-04-01T19:40:55.537Z,95123.28
2023-04-01T19:43:27.996Z,95132.25
2023-04-01T19:45:57.791Z,95115.41
2023-04-01T19:48:30.837Z,95142.41
2023-04-01T19:51:06.738Z,95107.19
2023-04-01T19:53:49.496Z,95135.63
2023-04-01T19:56:17.977Z,95143.19
2023-04-01T19:59:01.077Z,95147.78
2023-04-01T20:01:44.902Z,95084.16
2023-04-01T20:04:23.749Z,95143.72
2023-04-01T20:07:05.631Z,95162.00
2023-04-01T20:09:51.277Z,95165.06
2023-04-01T20:12:56.533Z,95148.88
2023-04-01T20:15:37.239Z,95163.53
2023-04-01T20:18:27.495Z,95138.03
2023-04-01T20:21:16.937Z,95162.44
2023-04-01T20:23:56.885Z,95124.16
2023-04-01T20:26:33.393Z,95172.41
2023-04-01T20:29:32.727Z,95175.91
2023-04-01T20:32:20.321Z,95172.06
2023-04-01T20:35:43.057Z,95107.09
2023-04-01T20:38:34.390Z,95176.13
2023-04-01T20:41:09.743Z,95181.38
2023-04-01T20:43:48.600Z,95186.97
2023-04-01T20:46:25.664Z,95179.41
2023-04-01T20:49:14.256Z,95178.97
2023-04-01T20:51:52.933Z,95182.81
2023-04-01T20:54:52.391Z,95160.16
2023-04-01T20:57:52.378Z,95181.72
2023-04-01T21:00:41.386Z,95190.34
2023-04-01T21:03:39.111Z,95192.97
2023-04-01T21:06:19.495Z,95160.91
2023-04-01T21:09:27.734Z,95192.66
2023-04-01T21:12:12.946Z,95191.13
2023-04-01T21:15:11.405Z,95198.25
2023-04-01T21:18:00.055Z,95171.97
2023-04-01T21:20:39.021Z,95200.72
2023-04-01T21:23:14.761Z,95195.47
2023-04-01T21:25:59.588Z,95199.44
2023-04-01T21:28:53.623Z,95206.22
2023-04-01T21:31:26.349Z,95206.97
2023-04-01T21:34:16.066Z,95208.19
2023-04-01T21:36:45.718Z,95189.47
2023-04-01T21:39:37.436Z,95210.28
2023-04-01T21:42:19.760Z,95218.91
2023-04-01T21:45:11.441Z,95216.72
2023-04-01T21:48:10.626Z,95221.31
2023-04-01T21:50:43.452Z,95235.66
2023-04-01T21:53:47.636Z,95230.41
2023-04-01T21:57:00.426Z,95219.34
2023-04-01T21:59:48.595Z,95235.88
2023-04-01T22:02:35.650Z,95225.13
2023-04-01T22:05:26.835Z,95237.97
2023-04-01T22:08:17.962Z,95231.94
2023-04-01T22:11:05.698Z,95237.97
2023-04-01T22:13:44.250Z,95229.09
2023-04-01T22:16:22.491Z,95219.44
2023-04-01T22:19:04.646Z,95220.09
2023-04-01T22:21:41.634Z,95210.16
2023-04-01T22:24:15.790Z,95234.56
2023-04-01T22:27:06.767Z,95244.06
2023-04-01T22:29:45.111Z,95245.50
2023-04-01T22:32:33.091Z,95217.78
2023-04-01T22:35:27.374Z,95245.06
2023-04-01T22:38:01.382Z,95249.97
2023-04-01T22:40:46.722Z,95253.72
2023-04-01T22:43:36.857Z,95197.53
2023-04-01T22:46:12.832Z,95255.00
2023-04-01T22:48:45.987Z,95207.69
2023-04-01T22:51:27.966Z,95254.56
2023-04-01T22:54:00.952Z,95264.31
2023-04-01T22:56:41.381Z,95224.03
2023-04-01T22:59:26.439Z,95219.88
2023-04-01T23:02:10.014Z,95256.09
2023-04-01T23:04:43.237Z,95265.75
2023-04-01T23:07:47.915Z,95272.28
2023-04-01T23:10:19.270Z,95274.47
2023-04-01T23:12:47.295Z,95155.50
2023-04-01T23:15:16.512Z,95287.69
2023-04-01T23:18:13.767Z,95269.94
2023-04-01T23:20:59.312Z,95292.06
2023-04-01T23:23:32.278Z,95291.31
2023-04-01T23:26:38.009Z,95287.47
2023-04-01T23:29:07.031Z,95273.44
2023-04-01T23:31:37.569Z,95283.50
2023-04-01T23:34:24.667Z,95287.38
2023-04-01T23:36:54.872Z,95279.25
2023-04-01T23:39:34.913Z,95254.28
2023-04-01T23:42:26.841Z,95297.66
2023-04-01T23:44:59.557Z,95091.50
2023-04-01T23:47:32.877Z,95230.19
2023-04-01T23:50:04.816Z,95313.41
2023-04-01T23:52:43.664Z,95262.78
2023-04-01T23:55:28.893Z,95314.19
2023-04-01T23:58:08.106Z,95316.03
